Data for 05/09/2010

Time Sea-Level Adjusted Pressure Absolute Pressure Temperature Relative Humidity Dew Point   
(mb) (inHg) (mb) (inHg) (C) (F) (%) (C) (F)
00:05 1015 29.97 844 24.92 4.6 40.2 80 1.4 34.6
00:10 1015 29.97 844 24.92 4.4 39.9 84 2 35.6
00:15 1015 29.97 844 24.92 4.2 39.6 86 2.2 35.9
00:20 1015 29.97 844 24.92 4.1 39.4 88 2.2 36
00:25 1015 29.97 844 24.92 3.9 39 88 2.1 35.9
00:30 1015 29.97 844 24.92 3.7 38.7 90 2.3 36.1
00:35 1015 29.97 844 24.92 3.6 38.5 89 2 35.6
00:40 1015 29.97 845 24.95 3.4 38.1 90 2 35.5
00:45 1015 29.97 845 24.95 3.2 37.8 91 1.8 35.2
00:50 1015 29.97 845 24.95 3.2 37.7 90 1.7 35.1
00:55 1015 29.97 845 24.95 2.8 37.1 91 1.5 34.8
01:00 1015 29.97 845 24.95 2.7 36.8 92 1.4 34.6
01:05 1015 29.97 845 24.95 2.5 36.6 91 1.3 34.3
01:10 1015 29.97 845 24.95 2.5 36.5 92 1.2 34.2
01:15 1015 29.97 845 24.95 2.4 36.4 91 1.2 34.1
01:20 1015 29.97 845 24.95 2.4 36.3 93 1.3 34.4
01:25 1015 29.97 845 24.95 2.6 36.8 91 1.3 34.4
01:30 1015 29.97 845 24.95 2.4 36.4 92 1.2 34.2
01:35 1015 29.97 845 24.95 2.2 36 92 1.1 33.9
01:40 1015 29.97 845 24.95 2.3 36.1 92 1.1 34
01:45 1015 29.97 845 24.95 2.3 36.2 92 1.1 33.9
01:50 1015 29.97 845 24.95 2.4 36.3 91 1.1 34
01:55 1015 29.97 845 24.95 2.4 36.2 91 1.1 33.9
02:00 1015 29.97 845 24.95 2.3 36.1 91 1 33.9
02:05 1015 29.97 844 24.92 2.3 36.1 91 1 33.7
02:10 1015 29.97 845 24.95 2.3 36.2 92 1.1 33.9
02:15 1015 29.97 845 24.95 2.4 36.3 91 1.1 34
02:20 1015 29.97 845 24.95 2.3 36.2 91 1 33.7
02:25 1015 29.97 845 24.95 2.3 36.2 91 1 33.8
02:30 1015 29.97 845 24.95 2.4 36.3 91 1 33.9
02:35 1015 29.97 845 24.95 2.6 36.6 90 1.2 34.1
02:40 1015 29.97 845 24.95 2.8 37 90 1.2 34.2
02:45 1015 29.97 845 24.95 2.9 37.3 88 1.2 34.1
02:50 1015 29.97 845 24.95 3 37.4 88 1.1 34
02:55 1015 29.97 845 24.95 3 37.4 88 1.2 34.2
03:00 1015 29.97 845 24.95 3 37.4 88 1.2 34.2
03:05 1015 29.97 845 24.95 3 37.4 89 1.3 34.4
03:10 1015 29.97 844 24.92 3 37.5 89 1.4 34.6
03:15 1015 29.97 844 24.92 3 37.5 90 1.5 34.7
03:20 1015 29.97 844 24.92 3.1 37.5 90 1.6 34.8
03:25 1015 29.97 844 24.92 3.1 37.6 90 1.6 35
03:30 1015 29.97 844 24.92 3.1 37.5 89 1.4 34.6
03:35 1015 29.97 844 24.92 3 37.4 90 1.6 34.8
03:40 1015 29.97 844 24.92 3.1 37.6 89 1.4 34.6
03:45 1015 29.97 844 24.92 3.1 37.6 90 1.6 34.9
03:50 1015 29.97 844 24.92 3.1 37.5 89 1.5 34.7
03:55 1015 29.97 844 24.92 2.7 36.8 91 1.3 34.4
04:00 1015 29.97 844 24.92 2.5 36.5 91 1.1 34
04:05 1015 29.97 844 24.92 2.6 36.7 90 1.1 34
04:10 1015 29.97 844 24.92 2.6 36.8 90 1.2 34.1
04:15 1015 29.97 844 24.92 2.7 36.8 90 1.2 34.2
04:20 1015 29.97 844 24.92 2.7 36.8 90 1.2 34.2
04:25 1015 29.97 844 24.92 2.7 36.9 89 1.1 34
04:30 1015 29.97 844 24.92 2.7 36.8 89 1 33.9
04:35 1015 29.97 844 24.92 2.7 36.9 88 0.9 33.6
04:40 1015 29.97 844 24.92 2.6 36.7 89 0.9 33.6
04:45 1015 29.97 844 24.92 2.5 36.5 88 0.8 33.4
04:50 1015 29.97 844 24.92 2.5 36.6 89 0.8 33.5
04:55 1015 29.97 844 24.92 2.5 36.5 89 0.8 33.4
05:00 1015 29.97 844 24.92 2.5 36.5 90 0.9 33.7
05:05 1015 29.97 844 24.92 2.5 36.5 88 0.7 33.3
05:10 1015 29.97 844 24.92 2.5 36.5 89 0.8 33.5
05:15 1015 29.97 844 24.92 2.2 36 91 0.9 33.6
05:20 1015 29.97 844 24.92 1.9 35.4 92 0.8 33.5
05:25 1015 29.97 844 24.92 1.9 35.4 93 0.8 33.5
05:30 1015 29.97 844 24.92 2 35.6 92 0.8 33.5
05:35 1015 29.97 844 24.92 2.1 35.8 91 0.9 33.6
05:40 1015 29.97 844 24.92 2.1 35.9 91 0.8 33.5
05:45 1015 29.97 844 24.92 2.2 36 91 1 33.7
05:50 1015 29.97 844 24.92 2.3 36.1 92 1.1 33.9
05:55 1015 29.97 844 24.92 2.4 36.3 89 0.8 33.5
06:00 1015 29.97 844 24.92 2.5 36.5 89 0.9 33.6
06:05 1015 29.97 844 24.92 2.6 36.7 89 0.9 33.7
06:10 1015 29.97 844 24.92 2.6 36.7 89 1 33.8
06:15 1015 29.97 844 24.92 2.4 36.3 91 1 33.8
06:20 1015 29.97 844 24.92 2.4 36.3 91 1.1 33.9
06:25 1015 29.97 844 24.92 2.7 36.8 90 1.2 34.2
06:30 1015 29.97 844 24.92 2.8 37 89 1.2 34.2
06:35 1015 29.97 844 24.92 2.7 36.9 90 1.2 34.2
06:40 1015 29.97 844 24.92 2.8 37 91 1.4 34.5
06:45 1015 29.97 844 24.92 2.8 37 91 1.4 34.6
06:50 1015 29.97 844 24.92 2.4 36.4 92 1.3 34.3
06:55 1015 29.97 844 24.92 2.5 36.4 93 1.4 34.5
07:00 1015 29.97 844 24.92 2.5 36.5 93 1.4 34.6
07:05 1015 29.97 844 24.92 2.6 36.6 91 1.3 34.3
07:10 1015 29.97 844 24.92 2.6 36.7 90 1.2 34.1
07:15 1015 29.97 844 24.92 2.6 36.8 90 1.1 34
07:20 1015 29.97 844 24.92 2.7 36.9 90 1.3 34.3
07:25 1015 29.97 844 24.92 2.8 37.1 89 1.2 34.2
07:30 1015 29.97 844 24.92 2.8 37 90 1.2 34.2
07:35 1015 29.97 844 24.92 2.8 37 91 1.4 34.6
07:40 1015 29.97 844 24.92 3 37.3 90 1.6 34.8
07:45 1015 29.97 844 24.92 3.2 37.8 89 1.5 34.7
07:50 1015 29.97 844 24.92 3.3 38 87 1.4 34.5
07:55 1015 29.97 845 24.95 3.3 37.9 87 1.4 34.5
08:00 1015 29.97 845 24.95 3.3 37.9 87 1.4 34.5
08:05 1015 29.97 845 24.95 3.5 38.3 86 1.3 34.4
08:10 1015 29.97 845 24.95 3.7 38.6 85 1.3 34.4
08:15 1015 29.97 845 24.95 3.5 38.4 86 1.3 34.4
08:20 1015 29.97 845 24.95 3.7 38.7 85 1.4 34.6
08:25 1015 29.97 845 24.95 3.9 39 85 1.6 34.9
08:30 1015 29.97 845 24.95 4 39.2 85 1.8 35.2
08:35 1015 29.97 845 24.95 4.1 39.3 85 1.7 35.1
08:40 1015 29.97 845 24.95 4.3 39.7 82 1.5 34.6
08:45 1015 29.97 845 24.95 4 39.3 85 1.7 35.1
08:50 1015 29.97 845 24.95 4.2 39.6 81 1.3 34.4
08:55 1015 29.97 845 24.95 4.2 39.6 83 1.6 34.8
09:00 1015 29.97 845 24.95 4.9 40.8 81 1.9 35.4
09:05 1015 29.97 845 24.95 4.9 40.8 82 2.1 35.8
09:10 1015 29.97 845 24.95 4.7 40.5 84 2.2 36
09:15 1015 29.97 845 24.95 4.9 40.7 79 1.4 34.6
09:20 1016 30 845 24.95 4.9 40.8 79 1.6 34.9
09:25 1016 30 845 24.95 4.7 40.5 80 1.5 34.7
09:30 1016 30 845 24.95 4.6 40.3 81 1.6 34.9
09:35 1016 30 845 24.95 4.4 39.8 81 1.4 34.6
09:40 1016 30 845 24.95 4 39.2 85 1.7 35.1
09:45 1016 30 845 24.95 3.9 38.9 85 1.6 34.9
09:50 1016 30 845 24.95 4.5 40 80 1.4 34.5
09:55 1016 30 845 24.95 4.2 39.6 82 1.5 34.7
10:00 1016 30 845 24.95 4.7 40.4 77 1 33.8
10:05 1016 30 845 24.95 4.9 40.8 79 1.5 34.8
10:10 1015 29.97 845 24.95 4.7 40.4 76 0.9 33.5
10:15 1015 29.97 845 24.95 4.1 39.3 79 0.7 33.3
10:20 1015 29.97 845 24.95 4.3 39.7 76 0.5 32.8
10:25 1015 29.97 845 24.95 4.7 40.5 76 0.9 33.6
10:30 1015 29.97 845 24.95 4.5 40.1 77 0.8 33.5
10:35 1015 29.97 845 24.95 4.5 40.1 74 0.3 32.6
10:40 1015 29.97 845 24.95 4.6 40.3 74 0.4 32.8
10:45 1015 29.97 845 24.95 4.3 39.7 76 0.4 32.7
10:50 1015 29.97 845 24.95 4.7 40.4 74 0.5 32.8
10:55 1015 29.97 844 24.92 5.4 41.6 73 1 33.8
11:00 1015 29.97 845 24.95 6 42.9 71 1.2 34.2
11:05 1015 29.97 845 24.95 5.5 41.9 72 1 33.7
11:10 1015 29.97 844 24.92 5.4 41.7 69 0.3 32.5
11:15 1015 29.97 844 24.92 6 42.8 67 0.3 32.6
11:20 1015 29.97 844 24.92 5.7 42.2 67 0.1 32.2
11:25 1015 29.97 844 24.92 5.9 42.7 67 0.3 32.5
11:30 1015 29.97 844 24.92 5.5 41.9 69 0.3 32.5
11:35 1015 29.97 844 24.92 5.9 42.7 64 -0.4 31.3
11:40 1015 29.97 844 24.92 7.6 45.7 59 0.3 32.5
11:45 1015 29.97 844 24.92 8.5 47.3 55 -0.1 31.9
11:50 1015 29.97 844 24.92 8.5 47.3 60 1.3 34.3
11:55 1015 29.97 844 24.92 8.3 47 58 0.5 33
12:00 1015 29.97 844 24.92 7.8 46 60 0.5 32.9
12:05 1015 29.97 844 24.92 6.9 44.4 62 0.2 32.4
12:10 1015 29.97 844 24.92 6.4 43.5 65 0.4 32.7
12:15 1015 29.97 844 24.92 6.6 43.8 64 0.3 32.5
12:20 1015 29.97 844 24.92 7.7 45.9 64 1.3 34.4
12:25 1015 29.97 844 24.92 7.9 46.2 66 2 35.5
12:30 1015 29.97 844 24.92 7.5 45.5 69 2.2 35.9
12:35 1015 29.97 844 24.92 7.4 45.4 68 1.9 35.4
12:40 1015 29.97 844 24.92 7 44.5 65 0.8 33.5
12:45 1015 29.97 844 24.92 6.7 44.1 67 1.1 34
12:50 1015 29.97 844 24.92 7.2 44.9 61 0.2 32.3
12:55 1015 29.97 844 24.92 7.5 45.5 57 -0.5 31.1
13:00 1015 29.97 844 24.92 8.1 46.7 57 0.1 32.3
13:05 1015 29.97 844 24.92 8.3 46.9 57 0.3 32.5
13:10 1015 29.97 844 24.92 9.2 48.6 53 0.2 32.4
13:15 1014 29.94 844 24.92 10.3 50.5 52 0.8 33.5
13:20 1014 29.94 844 24.92 9.3 48.7 53 0.2 32.3
13:25 1015 29.97 844 24.92 8.5 47.3 52 -0.6 30.8
13:30 1014 29.94 844 24.92 8.9 48.1 54 0.1 32.1
13:35 1014 29.94 844 24.92 9.4 48.9 49 -0.7 30.8
13:40 1014 29.94 843 24.89 9.3 48.7 50 -0.5 31.1
13:45 1014 29.94 843 24.89 9.8 49.7 48 -0.5 31.1
13:50 1014 29.94 843 24.89 9.8 49.7 45 -1.4 29.4
13:55 1014 29.94 843 24.89 9.6 49.3 44 -1.8 28.7
14:00 1014 29.94 843 24.89 10.3 50.6 43 -1.7 29
14:05 1014 29.94 843 24.89 10.9 51.6 40 -2.1 28.2
14:10 1014 29.94 843 24.89 11.5 52.7 40 -1.6 29.2
14:15 1014 29.94 843 24.89 11.5 52.8 39 -1.7 28.9
14:20 1014 29.94 843 24.89 12.1 53.7 35 -2.7 27.1
14:25 1014 29.94 843 24.89 12.5 54.4 37 -1.9 28.6
14:30 1014 29.94 843 24.89 12.3 54.1 35 -2.7 27.2
14:35 1014 29.94 843 24.89 12.4 54.2 33 -3.6 25.5
14:40 1014 29.94 843 24.89 12.6 54.7 33 -3.3 26.1
14:45 1014 29.94 843 24.89 13 55.3 30 -4.1 24.7
14:50 1014 29.94 843 24.89 12.5 54.5 31 -4.3 24.2
14:55 1014 29.94 843 24.89 11.7 53.1 33 -3.8 25.1
15:00 1014 29.94 843 24.89 12.2 53.9 32 -3.8 25.1
15:05 1014 29.94 843 24.89 12.5 54.5 34 -2.9 26.9
15:10 1014 29.94 843 24.89 11.4 52.5 40 -1.8 28.7
15:15 1013 29.91 843 24.89 12.1 53.7 33 -3.9 25
15:20 1013 29.91 843 24.89 12.4 54.4 33 -3.5 25.7
15:25 1013 29.91 843 24.89 11.2 52.1 36 -3.4 25.9
15:30 1013 29.91 843 24.89 12.2 53.9 33 -3.5 25.7
15:35 1013 29.91 843 24.89 11.5 52.7 35 -3.5 25.7
15:40 1013 29.91 842 24.86 12 53.6 35 -3.1 26.5
15:45 1013 29.91 842 24.86 12.4 54.2 32 -3.7 25.3
15:50 1013 29.91 842 24.86 11.7 53 32 -4.6 23.7
15:55 1013 29.91 842 24.86 12.1 53.8 33 -3.6 25.6
16:00 1013 29.91 842 24.86 12 53.6 31 -4.7 23.5
16:05 1013 29.91 842 24.86 11.9 53.5 31 -4.4 24
16:10 1013 29.91 842 24.86 11.6 52.8 33 -4.2 24.5
16:15 1013 29.91 842 24.86 11.7 53.1 33 -4.2 24.5
16:20 1013 29.91 842 24.86 12.1 53.8 31 -4.7 23.6
16:25 1013 29.91 842 24.86 11.7 53.1 31 -4.8 23.3
16:30 1013 29.91 842 24.86 12.1 53.7 30 -4.8 23.3
16:35 1013 29.91 842 24.86 12.5 54.5 27 -5.8 21.6
16:40 1013 29.91 842 24.86 12.6 54.6 28 -5.2 22.6
16:45 1013 29.91 842 24.86 13.1 55.6 27 -5.3 22.5
16:50 1013 29.91 842 24.86 12.7 54.9 27 -5.8 21.6
16:55 1013 29.91 842 24.86 12.4 54.2 29 -5.3 22.5
17:00 1013 29.91 842 24.86 13.2 55.7 26 -5.9 21.4
17:05 1013 29.91 842 24.86 13.5 56.2 26 -5.4 22.3
17:10 1013 29.91 842 24.86 13.3 56 26 -5.8 21.5
17:15 1013 29.91 842 24.86 13.1 55.6 25 -6.7 20
17:20 1013 29.91 842 24.86 13.6 56.5 23 -7 19.4
17:25 1013 29.91 842 24.86 13.4 56.2 23 -7.2 19
17:30 1012 29.88 842 24.86 13.2 55.7 25 -6.5 20.3
17:35 1013 29.91 842 24.86 13.1 55.5 26 -5.9 21.4
17:40 1013 29.91 842 24.86 13.1 55.6 26 -6.1 21.1
17:45 1012 29.88 842 24.86 12.6 54.7 26 -6.2 20.8
17:50 1012 29.88 842 24.86 12.7 54.8 25 -6.6 20.1
17:55 1012 29.88 842 24.86 13.5 56.3 23 -6.9 19.6
18:00 1013 29.91 842 24.86 14 57.1 22 -7.4 18.6
18:05 1013 29.91 842 24.86 13.9 57.1 24 -6.3 20.6
18:10 1013 29.91 842 24.86 13.1 55.5 25 -6.3 20.7
18:15 1013 29.91 842 24.86 12.4 54.4 26 -6.4 20.4
18:20 1012 29.88 842 24.86 12.1 53.7 26 -6.8 19.7
18:25 1012 29.88 842 24.86 12.4 54.2 26 -6.8 19.8
18:30 1012 29.88 842 24.86 12.4 54.2 26 -6.8 19.8
18:35 1012 29.88 842 24.86 12.6 54.8 25 -6.9 19.6
18:40 1013 29.91 842 24.86 12.1 53.8 26 -6.7 19.9
18:45 1013 29.91 842 24.86 12.2 54 26 -6.7 20
18:50 1013 29.91 842 24.86 12.4 54.3 25 -7.2 19.1
18:55 1013 29.91 842 24.86 12.3 54.2 25 -7 19.4
19:00 1013 29.91 842 24.86 12.1 53.7 26 -7 19.4
19:05 1013 29.91 842 24.86 11.8 53.2 26 -7.1 19.1
19:10 1013 29.91 842 24.86 11.4 52.6 27 -7 19.4
19:15 1013 29.91 842 24.86 11.6 52.8 26 -7.3 18.9
19:20 1013 29.91 842 24.86 11.7 53 26 -7.3 18.9
19:25 1013 29.91 842 24.86 11.5 52.7 25 -7.7 18.2
19:30 1013 29.91 842 24.86 11.3 52.3 26 -7.3 18.8
19:35 1013 29.91 842 24.86 11.2 52.2 27 -7 19.3
19:40 1013 29.91 842 24.86 11 51.9 27 -7 19.4
19:45 1013 29.91 842 24.86 11 51.7 28 -6.9 19.5
19:50 1013 29.91 842 24.86 11.1 52 27 -6.9 19.5
19:55 1013 29.91 842 24.86 11 51.9 28 -6.7 20
20:00 1013 29.91 842 24.86 10.8 51.4 29 -6.6 20.2
20:05 1013 29.91 842 24.86 10.5 50.9 29 -6.6 20.1
20:10 1013 29.91 842 24.86 10.6 51.1 29 -6.8 19.7
20:15 1013 29.91 842 24.86 10.5 51 29 -6.8 19.8
20:20 1013 29.91 842 24.86 10.5 51 29 -6.7 20
20:25 1013 29.91 842 24.86 10.5 50.8 30 -6.5 20.2
20:30 1013 29.91 842 24.86 10.4 50.8 30 -6.4 20.5
20:35 1013 29.91 842 24.86 10.3 50.6 30 -6.5 20.3
20:40 1013 29.91 842 24.86 10.3 50.5 30 -6.3 20.6
20:45 1013 29.91 842 24.86 10.2 50.3 31 -6.1 21
20:50 1013 29.91 842 24.86 10.1 50.3 30 -6.5 20.2
20:55 1013 29.91 842 24.86 10 50 31 -6.4 20.5
21:00 1013 29.91 842 24.86 9.6 49.3 32 -6.2 20.8
21:05 1013 29.91 842 24.86 9.3 48.7 33 -6.2 20.8
21:10 1013 29.91 842 24.86 9 48.3 34 -5.9 21.4
21:15 1013 29.91 842 24.86 8.7 47.6 37 -5.2 22.7
21:20 1013 29.91 842 24.86 8.2 46.7 38 -5.3 22.4
21:25 1013 29.91 842 24.86 8 46.4 39 -5 22.9
21:30 1013 29.91 842 24.86 7.9 46.2 40 -4.9 23.2
21:35 1013 29.91 842 24.86 7.9 46.2 36 -6.1 21
21:40 1013 29.91 843 24.89 8.3 46.9 35 -6.4 20.4
21:45 1013 29.91 843 24.89 8.2 46.8 37 -5.4 22.2
21:50 1013 29.91 843 24.89 7.9 46.1 37 -5.8 21.5
21:55 1013 29.91 842 24.86 7.9 46.2 37 -5.9 21.4
22:00 1013 29.91 842 24.86 8 46.4 36 -6.2 20.9
22:05 1013 29.91 843 24.89 8 46.4 37 -5.9 21.3
22:10 1013 29.91 843 24.89 7.8 46.1 37 -6 21.2
22:15 1013 29.91 843 24.89 7.6 45.7 39 -5.6 22
22:20 1013 29.91 843 24.89 7.3 45.2 39 -5.6 21.9
22:25 1013 29.91 843 24.89 7.3 45.1 38 -6 21.2
22:30 1013 29.91 843 24.89 7.2 44.9 38 -6.1 21.1
22:35 1013 29.91 843 24.89 7.2 44.9 39 -5.9 21.5
22:40 1013 29.91 843 24.89 7.1 44.8 37 -6.4 20.4
22:45 1013 29.91 843 24.89 7.4 45.2 35 -7 19.4
22:50 1013 29.91 843 24.89 7.6 45.7 36 -6.5 20.2
22:55 1013 29.91 843 24.89 7.6 45.6 38 -6 21.2
23:00 1013 29.91 843 24.89 7.3 45.2 39 -5.6 22
23:05 1013 29.91 843 24.89 7 44.6 41 -5.2 22.6
23:10 1013 29.91 843 24.89 6.7 44.1 42 -5.1 22.8
23:15 1013 29.91 842 24.86 6.6 43.8 44 -4.8 23.4
23:20 1013 29.91 842 24.86 6.5 43.7 45 -4.6 23.7
23:25 1013 29.91 842 24.86 6.5 43.7 47 -4 24.8
23:30 1013 29.91 842 24.86 6.2 43.2 50 -3.4 25.8
23:35 1013 29.91 842 24.86 6.1 43 53 -2.8 26.9
23:40 1013 29.91 842 24.86 6.2 43.1 53 -2.7 27.1
23:45 1013 29.91 842 24.86 6.1 43 53 -2.6 27.3
23:50 1013 29.91 842 24.86 6 42.9 55 -2.4 27.7
23:55 1013 29.91 842 24.86 5.9 42.6 56 -2.2 28.1
24:00 1013 29.91 842 24.86 5.9 42.6 57 -2 28.4